Time,TemperatureF,DewpointF,PressureIn,WindDirection,WindDirectionDegrees,WindSpeedMPH,WindSpeedGustMPH,Humidity,HourlyPrecipIn,Conditions,Clouds,dailyrainin,SolarRadiationWatts/m^2,SoftwareType,DateUTC
2013-02-05 00:08:00,37.6,20.0,29.92,West,273,2.0,7.0,50,0.00,,,0.00,0,weatherlink.com 1.10,2013-02-05 06:08:00,
2013-02-05 00:23:00,37.0,20.0,29.92,WNW,287,2.0,4.0,51,0.00,,,0.00,0,weatherlink.com 1.10,2013-02-05 06:23:00,
2013-02-05 00:38:00,37.6,21.0,29.93,WNW,296,3.0,7.0,51,0.00,,,0.00,0,weatherlink.com 1.10,2013-02-05 06:38:00,
2013-02-05 00:53:00,37.1,21.0,29.93,West,273,4.0,6.0,52,0.00,,,0.00,0,weatherlink.com 1.10,2013-02-05 06:53:00,
2013-02-05 01:08:00,36.9,21.0,29.93,West,259,7.0,7.0,52,0.00,,,0.00,0,weatherlink.com 1.10,2013-02-05 07:08:00,
2013-02-05 01:23:00,36.1,20.0,29.93,WNW,294,3.0,5.0,53,0.00,,,0.00,0,weatherlink.com 1.10,2013-02-05 07:23:00,
2013-02-05 01:38:00,35.9,21.0,29.93,West,279,0.0,3.0,54,0.00,,,0.00,0,weatherlink.com 1.10,2013-02-05 07:38:00,
2013-02-05 01:53:00,35.6,21.0,29.94,WNW,286,0.0,6.0,55,0.00,,,0.00,0,weatherlink.com 1.10,2013-02-05 07:53:00,
2013-02-05 02:08:00,34.0,20.0,29.94,West,273,0.0,5.0,58,0.00,,,0.00,0,weatherlink.com 1.10,2013-02-05 08:08:00,
2013-02-05 02:23:00,35.1,21.0,29.94,West,261,0.0,2.0,57,0.00,,,0.00,0,weatherlink.com 1.10,2013-02-05 08:23:00,
2013-02-05 02:38:00,35.9,21.0,29.93,West,261,0.0,1.0,56,0.00,,,0.00,0,weatherlink.com 1.10,2013-02-05 08:38:00,
2013-02-05 02:53:00,36.8,21.0,29.93,West,275,2.0,3.0,54,0.00,,,0.00,0,weatherlink.com 1.10,2013-02-05 08:53:00,
2013-02-05 03:08:00,36.6,22.0,29.94,WNW,286,0.0,5.0,55,0.00,,,0.00,0,weatherlink.com 1.10,2013-02-05 09:08:00,
2013-02-05 03:23:00,36.8,22.0,29.94,WNW,285,2.0,4.0,55,0.00,,,0.00,0,weatherlink.com 1.10,2013-02-05 09:23:00,
2013-02-05 03:38:00,37.1,22.0,29.93,WNW,282,0.0,3.0,54,0.00,,,0.00,0,weatherlink.com 1.10,2013-02-05 09:38:00,
2013-02-05 03:53:00,34.1,21.0,29.94,SW,228,4.0,5.0,59,0.00,,,0.00,0,weatherlink.com 1.10,2013-02-05 09:53:00,
2013-02-05 04:08:00,33.1,21.0,29.95,West,270,0.0,3.0,62,0.00,,,0.00,0,weatherlink.com 1.10,2013-02-05 10:08:00,
2013-02-05 04:23:00,33.1,21.0,29.96,West,275,0.0,4.0,62,0.00,,,0.00,0,weatherlink.com 1.10,2013-02-05 10:23:00,
2013-02-05 04:38:00,32.0,21.0,29.96,WNW,288,1.0,4.0,65,0.00,,,0.00,0,weatherlink.com 1.10,2013-02-05 10:38:00,
2013-02-05 04:53:00,33.4,22.0,29.96,WSW,238,5.0,8.0,63,0.00,,,0.00,0,weatherlink.com 1.10,2013-02-05 10:53:00,
2013-02-05 05:08:00,32.7,22.0,29.97,West,272,0.0,6.0,64,0.00,,,0.00,0,weatherlink.com 1.10,2013-02-05 11:08:00,
2013-02-05 05:23:00,32.9,22.0,29.97,West,279,1.0,6.0,64,0.00,,,0.00,0,weatherlink.com 1.10,2013-02-05 11:23:00,
2013-02-05 05:38:00,32.6,22.0,29.98,West,262,0.0,3.0,64,0.00,,,0.00,0,weatherlink.com 1.10,2013-02-05 11:38:00,
2013-02-05 05:53:00,33.6,23.0,29.98,West,276,5.0,12.0,64,0.00,,,0.00,0,weatherlink.com 1.10,2013-02-05 11:53:00,
2013-02-05 06:08:00,34.8,22.0,29.98,WNW,289,7.0,12.0,60,0.00,,,0.00,0,weatherlink.com 1.10,2013-02-05 12:08:00,
2013-02-05 06:23:00,35.3,23.0,29.98,WSW,250,8.0,12.0,60,0.00,,,0.00,0,weatherlink.com 1.10,2013-02-05 12:23:00,
2013-02-05 06:38:00,35.3,23.0,29.98,WSW,252,8.0,11.0,60,0.00,,,0.00,0,weatherlink.com 1.10,2013-02-05 12:38:00,
2013-02-05 06:54:00,35.6,22.0,29.99,WSW,250,12.0,12.0,59,0.00,,,0.00,0,weatherlink.com 1.10,2013-02-05 12:54:00,
2013-02-05 07:09:00,35.9,22.0,30.00,WNW,284,6.0,13.0,58,0.00,,,0.00,0,weatherlink.com 1.10,2013-02-05 13:09:00,
2013-02-05 07:24:00,34.7,22.0,30.00,West,275,8.0,13.0,60,0.00,,,0.00,0,weatherlink.com 1.10,2013-02-05 13:24:00,
2013-02-05 07:39:00,34.2,22.0,30.01,West,259,6.0,13.0,61,0.00,,,0.00,0,weatherlink.com 1.10,2013-02-05 13:39:00,
2013-02-05 07:54:00,33.7,22.0,30.02,WNW,286,3.0,9.0,62,0.00,,,0.00,7,weatherlink.com 1.10,2013-02-05 13:54:00,
2013-02-05 08:09:00,33.0,22.0,30.03,NW,313,0.0,6.0,64,0.00,,,0.00,14,weatherlink.com 1.10,2013-02-05 14:09:00,
2013-02-05 08:24:00,33.4,23.0,30.04,WNW,293,3.0,10.0,66,0.00,,,0.00,42,weatherlink.com 1.10,2013-02-05 14:24:00,
2013-02-05 08:39:00,34.4,23.0,30.05,WNW,286,3.0,12.0,64,0.00,,,0.00,86,weatherlink.com 1.10,2013-02-05 14:39:00,
2013-02-05 08:54:00,35.7,24.0,30.06,WNW,287,4.0,13.0,63,0.00,,,0.00,137,weatherlink.com 1.10,2013-02-05 14:54:00,
2013-02-05 09:09:00,36.9,25.0,30.06,WNW,299,4.0,11.0,62,0.00,,,0.00,193,weatherlink.com 1.10,2013-02-05 15:09:00,
2013-02-05 09:24:00,38.4,25.0,30.07,WNW,286,4.0,10.0,60,0.00,,,0.00,239,weatherlink.com 1.10,2013-02-05 15:24:00,
2013-02-05 09:39:00,39.6,26.0,30.07,WNW,300,1.0,8.0,58,0.00,,,0.00,281,weatherlink.com 1.10,2013-02-05 15:39:00,
2013-02-05 09:54:00,40.7,26.0,30.07,NW,321,2.0,9.0,57,0.00,,,0.00,322,weatherlink.com 1.10,2013-02-05 15:54:00,
2013-02-05 10:09:00,42.4,27.0,30.07,NW,311,3.0,8.0,54,0.00,,,0.00,360,weatherlink.com 1.10,2013-02-05 16:09:00,
2013-02-05 10:24:00,44.1,27.0,30.07,NW,308,4.0,8.0,51,0.00,,,0.00,396,weatherlink.com 1.10,2013-02-05 16:24:00,
2013-02-05 10:39:00,45.9,28.0,30.08,NW,319,2.0,7.0,49,0.00,,,0.00,431,weatherlink.com 1.10,2013-02-05 16:39:00,
2013-02-05 10:55:00,47.9,28.0,30.08,NW,322,0.0,7.0,47,0.00,,,0.00,462,weatherlink.com 1.10,2013-02-05 16:55:00,
2013-02-05 11:10:00,49.9,29.0,30.08,WNW,296,0.0,6.0,45,0.00,,,0.00,489,weatherlink.com 1.10,2013-02-05 17:10:00,
2013-02-05 11:25:00,50.5,29.0,30.08,NNE,17,2.0,7.0,43,0.00,,,0.00,517,weatherlink.com 1.10,2013-02-05 17:25:00,
2013-02-05 11:40:00,51.4,28.0,30.08,NE,36,0.0,6.0,41,0.00,,,0.00,545,weatherlink.com 1.10,2013-02-05 17:40:00,
2013-02-05 11:55:00,52.4,29.0,30.08,ENE,67,3.0,5.0,40,0.00,,,0.00,559,weatherlink.com 1.10,2013-02-05 17:55:00,
2013-02-05 12:10:00,52.6,27.0,30.07,NE,34,0.0,6.0,37,0.00,,,0.00,568,weatherlink.com 1.10,2013-02-05 18:10:00,
2013-02-05 12:25:00,52.7,28.0,30.07,NNW,340,0.0,7.0,38,0.00,,,0.00,578,weatherlink.com 1.10,2013-02-05 18:25:00,
2013-02-05 12:40:00,54.1,27.0,30.06,NW,304,0.0,5.0,35,0.00,,,0.00,585,weatherlink.com 1.10,2013-02-05 18:40:00,
2013-02-05 12:55:00,53.3,27.0,30.06,NNE,14,0.0,5.0,36,0.00,,,0.00,589,weatherlink.com 1.10,2013-02-05 18:55:00,
2013-02-05 13:10:00,53.6,26.0,30.05,NNW,337,0.0,8.0,34,0.00,,,0.00,589,weatherlink.com 1.10,2013-02-05 19:10:00,
2013-02-05 13:25:00,54.9,27.0,30.04,NW,305,0.0,5.0,34,0.00,,,0.00,584,weatherlink.com 1.10,2013-02-05 19:25:00,
2013-02-05 13:40:00,53.2,25.0,30.04,NNE,28,2.0,5.0,34,0.00,,,0.00,580,weatherlink.com 1.10,2013-02-05 19:40:00,
2013-02-05 13:55:00,55.0,27.0,30.03,NW,317,4.0,5.0,34,0.00,,,0.00,566,weatherlink.com 1.10,2013-02-05 19:55:00,
2013-02-05 14:10:00,54.9,26.0,30.02,SW,231,8.0,8.0,33,0.00,,,0.00,552,weatherlink.com 1.10,2013-02-05 20:10:00,
2013-02-05 14:25:00,54.5,26.0,30.00,ESE,107,0.0,5.0,33,0.00,,,0.00,533,weatherlink.com 1.10,2013-02-05 20:25:00,
2013-02-05 14:40:00,54.8,25.0,30.00,WSW,240,2.0,7.0,32,0.00,,,0.00,512,weatherlink.com 1.10,2013-02-05 20:40:00,
2013-02-05 14:55:00,55.2,26.0,29.99,WSW,240,1.0,9.0,32,0.00,,,0.00,483,weatherlink.com 1.10,2013-02-05 20:55:00,
2013-02-05 15:10:00,56.6,26.0,29.98,ESE,109,5.0,8.0,31,0.00,,,0.00,457,weatherlink.com 1.10,2013-02-05 21:10:00,
2013-02-05 15:25:00,55.6,26.0,29.98,East,97,2.0,8.0,32,0.00,,,0.00,424,weatherlink.com 1.10,2013-02-05 21:25:00,
2013-02-05 15:40:00,55.5,25.0,29.98,SSE,167,4.0,8.0,31,0.00,,,0.00,390,weatherlink.com 1.10,2013-02-05 21:40:00,
2013-02-05 15:55:00,55.7,25.0,29.98,South,189,6.0,10.0,31,0.00,,,0.00,353,weatherlink.com 1.10,2013-02-05 21:55:00,
2013-02-05 16:10:00,55.6,25.0,29.98,ESE,120,1.0,7.0,31,0.00,,,0.00,315,weatherlink.com 1.10,2013-02-05 22:10:00,
2013-02-05 16:25:00,55.9,25.0,29.97,South,180,4.0,7.0,31,0.00,,,0.00,276,weatherlink.com 1.10,2013-02-05 22:25:00,
2013-02-05 16:40:00,55.8,25.0,29.97,SSE,147,1.0,8.0,31,0.00,,,0.00,223,weatherlink.com 1.10,2013-02-05 22:40:00,
2013-02-05 16:55:00,55.6,26.0,29.97,SE,139,5.0,9.0,32,0.00,,,0.00,169,weatherlink.com 1.10,2013-02-05 22:55:00,
2013-02-05 17:10:00,55.4,26.0,29.97,SSE,157,3.0,7.0,32,0.00,,,0.00,118,weatherlink.com 1.10,2013-02-05 23:10:00,
2013-02-05 17:25:00,54.4,26.0,29.97,SE,126,3.0,8.0,33,0.00,,,0.00,69,weatherlink.com 1.10,2013-02-05 23:25:00,
2013-02-05 17:40:00,53.0,26.0,29.97,SSE,153,3.0,9.0,35,0.00,,,0.00,19,weatherlink.com 1.10,2013-02-05 23:40:00,
2013-02-05 17:55:00,51.0,25.0,29.97,ESE,121,4.0,8.0,37,0.00,,,0.00,11,weatherlink.com 1.10,2013-02-05 23:55:00,
2013-02-05 18:10:00,49.1,26.0,29.97,SE,126,4.0,7.0,40,0.00,,,0.00,0,weatherlink.com 1.10,2013-02-06 00:10:00,
2013-02-05 18:25:00,48.5,25.0,29.97,ESE,121,5.0,10.0,40,0.00,,,0.00,0,weatherlink.com 1.10,2013-02-06 00:25:00,
2013-02-05 18:40:00,47.3,26.0,29.97,ESE,117,7.0,10.0,43,0.00,,,0.00,0,weatherlink.com 1.10,2013-02-06 00:40:00,
2013-02-05 18:55:00,45.8,25.0,29.98,ESE,108,5.0,9.0,45,0.00,,,0.00,0,weatherlink.com 1.10,2013-02-06 00:55:00,
2013-02-05 19:10:00,44.7,25.0,29.98,ESE,121,0.0,9.0,46,0.00,,,0.00,0,weatherlink.com 1.10,2013-02-06 01:10:00,
2013-02-05 19:25:00,43.3,25.0,29.98,SE,126,2.0,6.0,49,0.00,,,0.00,0,weatherlink.com 1.10,2013-02-06 01:25:00,
2013-02-05 19:40:00,42.5,25.0,29.99,SSE,150,0.0,2.0,50,0.00,,,0.00,0,weatherlink.com 1.10,2013-02-06 01:40:00,
2013-02-05 19:55:00,42.3,26.0,29.99,ESE,117,3.0,4.0,52,0.00,,,0.00,0,weatherlink.com 1.10,2013-02-06 01:55:00,
2013-02-05 20:10:00,42.0,26.0,29.99,SE,127,3.0,5.0,53,0.00,,,0.00,0,weatherlink.com 1.10,2013-02-06 02:10:00,
2013-02-05 20:25:00,41.5,25.0,29.99,ESE,116,4.0,8.0,53,0.00,,,0.00,0,weatherlink.com 1.10,2013-02-06 02:25:00,
2013-02-05 20:40:00,41.3,26.0,29.98,East,94,5.0,9.0,56,0.00,,,0.00,0,weatherlink.com 1.10,2013-02-06 02:40:00,
2013-02-05 20:55:00,41.7,27.0,29.98,SE,138,9.0,10.0,56,0.00,,,0.00,0,weatherlink.com 1.10,2013-02-06 02:55:00,
2013-02-05 21:10:00,42.5,27.0,29.98,ESE,119,10.0,12.0,55,0.00,,,0.00,0,weatherlink.com 1.10,2013-02-06 03:10:00,
2013-02-05 21:25:00,42.4,27.0,29.98,SE,129,4.0,10.0,55,0.00,,,0.00,0,weatherlink.com 1.10,2013-02-06 03:25:00,
2013-02-05 21:40:00,41.7,27.0,29.98,ESE,116,5.0,10.0,56,0.00,,,0.00,0,weatherlink.com 1.10,2013-02-06 03:40:00,
2013-02-05 21:55:00,41.3,27.0,29.98,South,169,3.0,8.0,57,0.00,,,0.00,0,weatherlink.com 1.10,2013-02-06 03:55:00,
2013-02-05 22:10:00,40.3,26.0,29.98,SSE,163,4.0,5.0,58,0.00,,,0.00,0,weatherlink.com 1.10,2013-02-06 04:10:00,
2013-02-05 22:25:00,39.6,27.0,29.98,South,185,3.0,7.0,61,0.00,,,0.00,0,weatherlink.com 1.10,2013-02-06 04:25:00,
2013-02-05 22:40:00,41.6,28.0,29.98,SSE,164,3.0,11.0,58,0.00,,,0.00,0,weatherlink.com 1.10,2013-02-06 04:40:00,
2013-02-05 22:55:00,41.5,28.0,29.97,ESE,116,7.0,11.0,59,0.00,,,0.00,0,weatherlink.com 1.10,2013-02-06 04:55:00,
2013-02-05 23:10:00,41.4,28.0,29.96,South,171,5.0,11.0,59,0.00,,,0.00,0,weatherlink.com 1.10,2013-02-06 05:10:00,
2013-02-05 23:25:00,40.6,28.0,29.96,South,180,7.0,12.0,61,0.00,,,0.00,0,weatherlink.com 1.10,2013-02-06 05:25:00,
2013-02-05 23:40:00,39.9,28.0,29.96,South,182,7.0,11.0,62,0.00,,,0.00,0,weatherlink.com 1.10,2013-02-06 05:40:00,
2013-02-05 23:55:00,39.5,28.0,29.96,SSE,153,5.0,10.0,63,0.00,,,0.00,0,weatherlink.com 1.10,2013-02-06 05:55:00,